Time;durP1;ratioP1;P1;durP2;ratioP2;P2;SDS_P1;SDS_P2;PMS_P1;PMS_P2;Temp;Humidity;BMP_temperature;BMP_pressure;BME280_temperature;BME280_humidity;BME280_pressure;Samples;Min_cycle;Max_cycle;Signal;HPM_P1;HPM_P2
2022/06/13 00:01:30;;;;;;;2.53;2.33;;;21.80;99.90;;;;;;5014040;28;20631;-85
2022/06/13 00:03:57;;;;;;;2.90;2.27;;;21.90;99.90;;;;;;5009273;28;20651;-85
2022/06/13 00:06:24;;;;;;;2.33;2.00;;;21.90;99.90;;;;;;5011756;28;20639;-85
2022/06/13 00:08:51;;;;;;;3.20;2.50;;;22.00;99.90;;;;;;5016007;28;21182;-85
2022/06/13 00:11:25;;;;;;;2.00;1.90;;;22.00;99.90;;;;;;5015404;28;20628;-85
2022/06/13 00:13:54;;;;;;;1.90;1.80;;;22.10;99.90;;;;;;5012710;28;20650;-86
2022/06/13 00:16:21;;;;;;;2.87;2.53;;;22.10;99.90;;;;;;5009368;28;20750;-85
2022/06/13 00:18:49;;;;;;;2.40;2.20;;;22.10;99.90;;;;;;5015893;28;20635;-84
2022/06/13 00:21:17;;;;;;;2.83;2.10;;;22.10;99.90;;;;;;5017673;28;20728;-84
2022/06/13 00:23:46;;;;;;;2.03;1.83;;;22.20;99.90;;;;;;5015999;28;20630;-85
2022/06/13 00:26:14;;;;;;;3.10;1.90;;;22.20;99.90;;;;;;5015261;28;20720;-87
2022/06/13 00:28:41;;;;;;;2.07;1.87;;;22.20;99.90;;;;;;5016270;28;20681;-87
2022/06/13 00:31:07;;;;;;;2.77;2.50;;;22.20;99.90;;;;;;5017888;28;21218;-86
2022/06/13 00:33:34;;;;;;;3.00;2.37;;;21.90;99.90;;;;;;5014574;28;20675;-86
2022/06/13 00:36:02;;;;;;;3.00;2.13;;;21.70;99.90;;;;;;5016965;28;20674;-86
2022/06/13 00:38:29;;;;;;;1.90;1.77;;;21.80;99.90;;;;;;5016257;28;20639;-84
2022/06/13 00:40:56;;;;;;;3.90;2.30;;;22.00;99.90;;;;;;5021562;28;20631;-85
2022/06/13 00:43:23;;;;;;;3.10;1.90;;;22.10;99.90;;;;;;5019163;28;20618;-85
2022/06/13 00:45:50;;;;;;;3.77;1.90;;;22.10;99.90;;;;;;5017018;28;20669;-84
2022/06/13 00:48:22;;;;;;;3.13;2.13;;;22.20;99.90;;;;;;5018678;28;20637;-84
2022/06/13 00:50:53;;;;;;;2.40;2.10;;;22.20;99.90;;;;;;5019327;28;20649;-84
2022/06/13 00:53:24;;;;;;;2.30;2.10;;;22.30;99.90;;;;;;5016868;28;20660;-85
2022/06/13 00:55:56;;;;;;;3.13;2.10;;;22.30;99.90;;;;;;5021375;28;20665;-85
2022/06/13 00:58:25;;;;;;;2.53;2.17;;;22.30;99.90;;;;;;5018186;28;20726;-84
2022/06/13 01:00:54;;;;;;;4.30;2.07;;;22.40;99.90;;;;;;5018574;28;20631;-85
2022/06/13 01:03:22;;;;;;;3.50;2.10;;;22.40;99.90;;;;;;5021383;28;20631;-83
2022/06/13 01:05:51;;;;;;;2.63;2.30;;;22.40;99.90;;;;;;5011638;28;20662;-83
2022/06/13 01:08:23;;;;;;;3.27;2.50;;;22.40;99.90;;;;;;5022550;28;20634;-84
2022/06/13 01:13:57;;;;;;;1.60;1.50;;;22.40;99.90;;;;;;5013807;28;20623;-84
2022/06/13 01:16:35;;;;;;;1.93;1.73;;;22.30;99.90;;;;;;5019702;28;20630;-84
2022/06/13 01:19:31;;;;;;;2.80;2.00;;;22.30;99.90;;;;;;5013936;28;20634;-89
2022/06/13 01:22:11;;;;;;;2.37;1.77;;;22.30;99.90;;;;;;5017470;28;20630;-90
2022/06/13 01:24:55;;;;;;;4.30;2.00;;;22.30;99.90;;;;;;5009985;28;20656;-88
2022/06/13 01:27:56;;;;;;;1.80;1.70;;;22.30;99.90;;;;;;5005642;28;20650;-88
2022/06/13 01:30:46;;;;;;;2.60;2.30;;;22.40;99.90;;;;;;5007210;28;20651;-88
2022/06/13 01:33:20;;;;;;;1.77;1.67;;;22.30;99.90;;;;;;5016085;28;20662;-88
2022/06/13 01:35:57;;;;;;;2.70;2.00;;;22.30;99.90;;;;;;5014942;28;20657;-88
2022/06/13 01:38:42;;;;;;;2.43;2.13;;;22.30;99.90;;;;;;5022555;28;20634;-87
2022/06/13 01:41:14;;;;;;;2.10;1.90;;;22.40;99.90;;;;;;5008520;28;20630;-87
2022/06/13 01:43:53;;;;;;;2.60;2.00;;;22.40;99.90;;;;;;5009865;28;20622;-85
2022/06/13 01:46:31;;;;;;;2.73;1.80;;;22.40;99.90;;;;;;5015789;28;20650;-85
2022/06/13 01:49:05;;;;;;;3.90;2.30;;;22.30;99.90;;;;;;5008786;28;20611;-86
2022/06/13 01:51:38;;;;;;;2.57;2.37;;;22.30;99.90;;;;;;5012218;28;20611;-87
2022/06/13 01:54:18;;;;;;;1.83;1.73;;;22.30;99.90;;;;;;5019840;28;20611;-87
2022/06/13 01:56:55;;;;;;;2.30;2.00;;;22.40;99.90;;;;;;5018043;28;20630;-87
2022/06/13 01:59:27;;;;;;;2.57;1.90;;;22.30;99.90;;;;;;5017455;28;20618;-87
2022/06/13 02:02:01;;;;;;;2.00;1.80;;;22.30;99.90;;;;;;5014471;28;20631;-87
2022/06/13 02:04:34;;;;;;;2.73;2.07;;;22.30;99.90;;;;;;5017348;28;20670;-86
2022/06/13 02:07:05;;;;;;;2.77;2.00;;;22.40;99.90;;;;;;5016111;28;21154;-87
2022/06/13 02:09:39;;;;;;;4.17;2.53;;;22.30;99.90;;;;;;5021696;28;20623;-88
2022/06/13 02:12:07;;;;;;;2.00;1.73;;;22.30;99.90;;;;;;5018016;28;20667;-88
2022/06/13 02:14:36;;;;;;;4.50;2.40;;;22.30;99.90;;;;;;5011330;28;20656;-89
2022/06/13 02:17:11;;;;;;;2.77;2.40;;;22.30;99.90;;;;;;5011890;28;20639;-88
2022/06/13 02:19:43;;;;;;;1.87;1.77;;;22.30;99.90;;;;;;5013367;28;20606;-87
2022/06/13 02:22:14;;;;;;;2.73;1.93;;;22.30;99.90;;;;;;5010612;28;20612;-87
2022/06/13 02:24:48;;;;;;;2.30;1.80;;;22.30;99.90;;;;;;5014001;28;21285;-87
2022/06/13 02:27:18;;;;;;;3.13;1.80;;;22.30;99.90;;;;;;5013647;28;20630;-86
2022/06/13 02:29:48;;;;;;;2.63;2.43;;;22.30;99.90;;;;;;5012125;28;20631;-87
2022/06/13 02:32:20;;;;;;;2.50;1.83;;;22.30;99.90;;;;;;5017698;28;20687;-87
2022/06/13 02:34:50;;;;;;;2.17;1.87;;;22.30;99.90;;;;;;5016207;28;20651;-88
2022/06/13 02:37:24;;;;;;;3.10;1.97;;;22.30;99.90;;;;;;5017018;28;20634;-84
2022/06/13 02:39:54;;;;;;;1.90;1.80;;;22.30;99.90;;;;;;5018400;28;20629;-85
2022/06/13 02:42:28;;;;;;;2.43;1.97;;;22.30;99.90;;;;;;5018536;28;20634;-86
2022/06/13 02:44:59;;;;;;;2.17;1.53;;;22.30;99.90;;;;;;5015208;28;21035;-85
2022/06/13 02:47:36;;;;;;;4.37;2.03;;;22.30;99.90;;;;;;5018445;28;20626;-85
2022/06/13 02:50:08;;;;;;;2.80;2.00;;;22.30;99.90;;;;;;5019283;28;20616;-86
2022/06/13 02:52:40;;;;;;;2.47;2.10;;;22.30;99.90;;;;;;5015999;28;20667;-86
2022/06/13 02:55:10;;;;;;;2.13;1.77;;;22.30;99.90;;;;;;5017624;28;20728;-86
2022/06/13 02:57:58;;;;;;;2.73;1.73;;;22.30;99.90;;;;;;5016503;28;20627;-85
2022/06/13 03:00:38;;;;;;;2.13;2.03;;;22.30;99.90;;;;;;5018543;28;21029;-85
2022/06/13 03:03:20;;;;;;;2.00;1.80;;;22.30;99.90;;;;;;5015857;28;20610;-86
2022/06/13 03:05:54;;;;;;;2.63;2.40;;;22.30;99.90;;;;;;5014140;28;20650;-87
2022/06/13 03:08:43;;;;;;;3.87;2.10;;;22.30;99.90;;;;;;5016785;28;20638;-88
2022/06/13 03:11:23;;;;;;;2.73;2.00;;;22.20;99.90;;;;;;5012128;28;20635;-88
2022/06/13 03:14:01;;;;;;;2.40;2.20;;;22.10;99.90;;;;;;5013411;28;20662;-89
2022/06/13 03:16:33;;;;;;;2.53;2.33;;;22.00;99.90;;;;;;5015703;28;20629;-87
2022/06/13 03:19:09;;;;;;;2.13;1.83;;;22.00;99.90;;;;;;5015830;28;21193;-87
2022/06/13 03:21:39;;;;;;;4.10;2.67;;;22.00;99.90;;;;;;5021298;28;20712;-87
2022/06/13 03:24:12;;;;;;;2.03;1.63;;;22.00;99.90;;;;;;5016344;28;20620;-88
2022/06/13 03:26:44;;;;;;;2.20;1.90;;;22.00;99.90;;;;;;5009738;28;20673;-87
2022/06/13 03:29:15;;;;;;;4.00;2.03;;;22.00;99.90;;;;;;5008912;28;20623;-87
2022/06/13 03:31:46;;;;;;;3.13;1.80;;;21.90;99.90;;;;;;5003474;28;20730;-85
2022/06/13 03:34:21;;;;;;;3.43;1.77;;;21.90;99.90;;;;;;5013787;28;20686;-86
2022/06/13 03:36:52;;;;;;;2.50;2.00;;;21.90;99.90;;;;;;5016304;28;20614;-86
2022/06/13 03:39:23;;;;;;;2.83;1.87;;;21.80;99.90;;;;;;5013432;28;20638;-85
2022/06/13 03:41:54;;;;;;;5.50;2.90;;;21.80;99.90;;;;;;5012629;28;20623;-85
2022/06/13 03:44:28;;;;;;;5.80;3.03;;;21.10;99.90;;;;;;5013556;28;20659;-85
2022/06/13 03:47:00;;;;;;;7.67;2.90;;;20.30;99.90;;;;;;5012176;28;20615;-85
2022/06/13 03:49:34;;;;;;;4.13;2.20;;;19.80;99.90;;;;;;5009313;28;20631;-84
2022/06/13 03:52:07;;;;;;;6.13;3.23;;;19.20;99.90;;;;;;5019159;28;20630;-83
2022/06/13 03:54:38;;;;;;;6.63;2.70;;;19.00;99.90;;;;;;5027936;28;20696;-83
2022/06/13 03:57:13;;;;;;;3.63;2.70;;;18.70;99.90;;;;;;5028611;28;20621;-82
2022/06/13 03:59:51;;;;;;;7.70;3.00;;;18.40;99.90;;;;;;5018286;28;20987;-84
2022/06/13 04:02:23;;;;;;;5.80;3.03;;;18.30;99.90;;;;;;5015963;28;20657;-83
2022/06/13 04:04:53;;;;;;;3.80;2.83;;;18.00;99.90;;;;;;5015206;28;20662;-82
2022/06/13 04:07:21;;;;;;;10.10;3.43;;;18.00;99.90;;;;;;5017065;28;21204;-83
2022/06/13 04:09:52;;;;;;;7.50;2.60;;;17.70;99.90;;;;;;5023469;28;20623;-83
2022/06/13 04:12:30;;;;;;;5.63;2.67;;;17.70;99.90;;;;;;5022703;28;20630;-84
2022/06/13 04:15:14;;;;;;;7.10;3.03;;;17.60;99.90;;;;;;5018023;28;20737;-83
2022/06/13 04:17:51;;;;;;;7.73;3.00;;;17.50;99.90;;;;;;5019509;28;20640;-83
2022/06/13 04:20:27;;;;;;;5.60;2.70;;;17.40;99.90;;;;;;5005281;28;20636;-84
2022/06/13 04:22:59;;;;;;;5.20;3.30;;;17.30;99.90;;;;;;5018015;28;21162;-83
2022/06/13 04:25:30;;;;;;;8.00;3.40;;;17.20;99.90;;;;;;5017650;28;20734;-85
2022/06/13 04:28:05;;;;;;;5.30;2.57;;;17.10;99.90;;;;;;5021798;28;20968;-86
2022/06/13 04:30:35;;;;;;;4.87;2.60;;;17.20;99.90;;;;;;5018861;28;20631;-82
2022/06/13 04:33:06;;;;;;;8.20;4.07;;;17.20;99.90;;;;;;5014082;28;20762;-83
2022/06/13 04:35:36;;;;;;;9.67;2.73;;;17.10;99.90;;;;;;5017049;28;20658;-82
2022/06/13 04:38:05;;;;;;;6.83;3.33;;;16.90;99.90;;;;;;5022693;28;20659;-83
2022/06/13 04:40:35;;;;;;;6.73;3.17;;;16.90;99.90;;;;;;5022884;28;20640;-83
2022/06/13 04:43:06;;;;;;;6.03;3.10;;;16.90;99.90;;;;;;5020842;28;20639;-82
2022/06/13 04:45:43;;;;;;;5.10;3.00;;;16.90;99.90;;;;;;5013983;28;20671;-82
2022/06/13 04:48:12;;;;;;;9.27;3.97;;;16.90;99.90;;;;;;5014317;28;20632;-82
2022/06/13 04:50:44;;;;;;;7.50;5.10;;;16.80;99.90;;;;;;5021523;28;21364;-82
2022/06/13 04:53:19;;;;;;;10.60;3.70;;;16.80;99.90;;;;;;5011367;28;20664;-86
2022/06/13 04:55:48;;;;;;;6.40;3.67;;;16.80;99.90;;;;;;5018671;28;20618;-83
2022/06/13 04:58:23;;;;;;;5.27;3.00;;;16.70;99.90;;;;;;5017275;28;20635;-83
2022/06/13 05:00:58;;;;;;;7.63;3.57;;;16.70;99.90;;;;;;5020311;28;20638;-84
2022/06/13 05:03:27;;;;;;;4.53;3.00;;;16.60;99.90;;;;;;5012201;28;21004;-83
2022/06/13 05:05:59;;;;;;;3.67;3.17;;;16.50;99.90;;;;;;5019647;28;20627;-83
2022/06/13 05:08:29;;;;;;;6.23;2.87;;;16.50;99.90;;;;;;5017302;28;20619;-83
2022/06/13 05:11:01;;;;;;;6.57;3.70;;;16.50;99.90;;;;;;5019968;28;21217;-83
2022/06/13 05:13:28;;;;;;;6.53;3.50;;;16.50;99.90;;;;;;5017368;28;21232;-83
2022/06/13 05:16:05;;;;;;;7.70;3.57;;;16.50;99.90;;;;;;5018093;28;20942;-83
2022/06/13 05:18:51;;;;;;;8.07;3.50;;;16.50;99.90;;;;;;5018374;28;20619;-80
2022/06/13 05:21:32;;;;;;;8.90;3.47;;;17.00;99.90;;;;;;5015565;28;20657;-80
2022/06/13 05:24:39;;;;;;;6.17;3.37;;;17.60;99.90;;;;;;5014122;28;20706;-80
2022/06/13 05:27:08;;;;;;;6.60;3.73;;;17.60;99.90;;;;;;4971853;28;20656;-80
2022/06/13 05:29:35;;;;;;;7.90;3.30;;;17.70;99.90;;;;;;5009961;28;21073;-80
2022/06/13 05:32:02;;;;;;;7.00;3.50;;;17.60;99.90;;;;;;5007742;28;20623;-80
2022/06/13 05:34:33;;;;;;;6.33;3.50;;;17.50;99.90;;;;;;5020767;28;20666;-80
2022/06/13 05:37:02;;;;;;;6.50;3.23;;;17.50;99.90;;;;;;5016675;28;20668;-80
2022/06/13 05:39:30;;;;;;;6.10;3.37;;;17.40;99.90;;;;;;5014289;28;20659;-80
2022/06/13 05:41:57;;;;;;;5.93;3.57;;;17.40;99.90;;;;;;5016930;28;20612;-80
2022/06/13 05:44:24;;;;;;;5.87;3.10;;;17.50;99.90;;;;;;5023713;28;20626;-81
2022/06/13 05:46:51;;;;;;;6.50;4.00;;;17.50;99.90;;;;;;5014060;28;20719;-81
2022/06/13 05:49:18;;;;;;;9.07;3.90;;;17.40;99.90;;;;;;5023836;28;20650;-81
2022/06/13 05:51:46;;;;;;;9.30;4.60;;;17.30;99.90;;;;;;5021180;28;20773;-80
2022/06/13 05:54:15;;;;;;;7.93;5.83;;;17.40;99.90;;;;;;5018030;28;20676;-80
2022/06/13 05:56:42;;;;;;;8.93;7.17;;;17.40;99.90;;;;;;5017385;28;20742;-80
2022/06/13 05:59:09;;;;;;;10.00;5.17;;;17.50;99.90;;;;;;5016814;28;21730;-79
2022/06/13 06:01:36;;;;;;;11.20;4.70;;;17.60;99.90;;;;;;5020080;28;21165;-80
2022/06/13 06:04:03;;;;;;;8.47;4.33;;;17.70;99.90;;;;;;5015605;28;20647;-81
2022/06/13 06:06:32;;;;;;;5.10;3.70;;;17.70;99.90;;;;;;5012329;28;20691;-82
2022/06/13 06:09:00;;;;;;;8.73;3.47;;;17.60;99.90;;;;;;5022272;28;21202;-81
2022/06/13 06:11:30;;;;;;;5.70;2.90;;;17.60;99.90;;;;;;5019291;28;20639;-83
2022/06/13 06:13:58;;;;;;;8.73;3.30;;;17.60;99.90;;;;;;5016388;28;20706;-81
2022/06/13 06:16:28;;;;;;;8.77;3.70;;;17.60;99.90;;;;;;5019982;28;20696;-81
2022/06/13 06:18:56;;;;;;;5.80;3.40;;;17.60;99.90;;;;;;5020328;28;21232;-81
2022/06/13 06:21:24;;;;;;;9.00;3.20;;;17.60;99.90;;;;;;5017927;28;20637;-82
2022/06/13 06:23:51;;;;;;;10.10;3.23;;;17.60;99.90;;;;;;5008972;28;20631;-80
2022/06/13 06:26:21;;;;;;;5.37;2.97;;;17.60;99.90;;;;;;5003672;28;20651;-82
2022/06/13 06:28:50;;;;;;;7.37;3.03;;;17.70;99.90;;;;;;5004718;28;20648;-82
2022/06/13 06:31:18;;;;;;;6.90;3.27;;;17.70;99.90;;;;;;5003871;28;20690;-81
2022/06/13 06:33:48;;;;;;;5.50;2.77;;;17.70;99.90;;;;;;5005397;28;20687;-82
2022/06/13 06:36:15;;;;;;;8.17;3.00;;;17.80;99.90;;;;;;5005606;28;20652;-82
2022/06/13 06:38:42;;;;;;;11.30;3.03;;;17.90;99.90;;;;;;5010351;28;20622;-82
2022/06/13 06:41:09;;;;;;;8.57;3.30;;;17.90;99.90;;;;;;5006601;28;20631;-82
2022/06/13 06:43:36;;;;;;;8.80;3.67;;;17.90;99.90;;;;;;5008491;28;20618;-82
2022/06/13 06:46:05;;;;;;;5.20;3.10;;;17.90;99.90;;;;;;5012297;28;20666;-81
2022/06/13 06:48:32;;;;;;;3.13;2.60;;;17.90;99.90;;;;;;5015203;28;21194;-81
2022/06/13 06:50:58;;;;;;;6.30;2.80;;;18.00;99.90;;;;;;5020081;28;20628;-81
2022/06/13 06:59:52;;;;;;;7.80;2.97;;;18.00;99.90;;;;;;5016122;28;20635;-81
2022/06/13 07:01:44;;;;;;;6.30;2.90;;;18.30;99.90;;;;;;5002792;28;20595;-81
2022/06/13 07:04:11;;;;;;;5.37;2.37;;;18.40;99.90;;;;;;5004259;28;21574;-82
2022/06/13 07:06:39;;;;;;;6.83;2.83;;;18.40;99.90;;;;;;5014792;28;20745;-82
2022/06/13 07:09:06;;;;;;;7.57;2.93;;;18.50;99.90;;;;;;5019922;28;20634;-81
2022/06/13 07:14:20;;;;;;;6.47;2.43;;;18.50;99.90;;;;;;5010928;28;20716;-82
2022/06/13 07:16:48;;;;;;;5.27;2.70;;;18.60;99.90;;;;;;5018302;28;20650;-82
2022/06/13 07:19:15;;;;;;;5.13;2.50;;;18.70;99.90;;;;;;5014744;28;20638;-82
2022/06/13 07:21:42;;;;;;;5.60;2.37;;;18.80;99.90;;;;;;5015735;28;20738;-82
2022/06/13 07:24:09;;;;;;;6.00;3.00;;;18.80;99.90;;;;;;5003390;28;20652;-82
2022/06/13 07:26:36;;;;;;;7.17;2.73;;;18.90;99.90;;;;;;5002775;28;21799;-81
2022/06/13 07:29:04;;;;;;;7.53;2.73;;;19.00;99.90;;;;;;5013643;28;21198;-82
2022/06/13 07:31:37;;;;;;;6.90;2.80;;;19.00;99.90;;;;;;5015175;28;21703;-81
2022/06/13 07:34:07;;;;;;;4.10;2.43;;;19.00;99.90;;;;;;5013776;28;20676;-82
2022/06/13 07:36:34;;;;;;;11.13;2.73;;;19.00;99.90;;;;;;5012892;28;20659;-82
2022/06/13 07:39:01;;;;;;;6.30;3.80;;;19.10;99.90;;;;;;5014875;28;20622;-81
2022/06/13 07:41:28;;;;;;;5.30;3.00;;;19.00;99.90;;;;;;5011048;28;20717;-81
2022/06/13 07:43:57;;;;;;;4.50;2.77;;;19.00;99.90;;;;;;5011102;28;20632;-80
2022/06/13 07:46:26;;;;;;;5.37;2.60;;;19.10;99.90;;;;;;5005451;28;20655;-81
2022/06/13 07:48:53;;;;;;;5.53;2.93;;;19.00;99.90;;;;;;5012342;28;20640;-81
2022/06/13 07:51:22;;;;;;;5.23;3.40;;;19.10;99.90;;;;;;5017481;28;21019;-80
2022/06/13 07:53:50;;;;;;;4.87;2.90;;;19.20;99.90;;;;;;5013451;28;20634;-80
2022/06/13 07:56:20;;;;;;;10.70;3.50;;;19.20;99.90;;;;;;5016600;28;21114;-81
2022/06/13 07:58:50;;;;;;;8.50;3.63;;;19.20;99.90;;;;;;5011062;28;20642;-81
2022/06/13 08:01:17;;;;;;;8.57;2.70;;;19.30;99.90;;;;;;5015178;28;20656;-81
2022/06/13 08:03:45;;;;;;;4.70;2.83;;;19.40;99.90;;;;;;5014905;28;21043;-81
2022/06/13 08:06:13;;;;;;;4.80;2.73;;;19.50;99.90;;;;;;5013396;28;20668;-81
2022/06/13 08:08:42;;;;;;;6.20;2.70;;;19.60;99.90;;;;;;5009112;28;20627;-80
2022/06/13 08:11:10;;;;;;;4.40;2.67;;;19.70;99.90;;;;;;5008210;28;20639;-81
2022/06/13 08:13:39;;;;;;;4.60;2.50;;;19.80;99.90;;;;;;5015529;28;20626;-81
2022/06/13 08:16:07;;;;;;;10.03;5.20;;;19.80;99.90;;;;;;5015860;28;21259;-80
2022/06/13 08:18:34;;;;;;;9.33;5.40;;;19.80;99.90;;;;;;5014742;28;20638;-81
2022/06/13 08:21:01;;;;;;;8.40;4.30;;;19.90;99.90;;;;;;5014970;28;20627;-80
2022/06/13 08:23:28;;;;;;;7.17;3.27;;;20.00;99.90;;;;;;5013026;28;20645;-81
2022/06/13 08:25:56;;;;;;;7.40;3.30;;;20.20;99.90;;;;;;5010618;28;20662;-81
2022/06/13 08:28:23;;;;;;;6.03;3.53;;;20.30;99.90;;;;;;5001675;28;20642;-80
2022/06/13 08:30:53;;;;;;;8.43;3.13;;;20.50;99.90;;;;;;5002556;28;20620;-81
2022/06/13 08:33:21;;;;;;;4.47;3.03;;;20.60;99.90;;;;;;5011545;28;20607;-81
2022/06/13 08:35:49;;;;;;;6.77;3.30;;;20.60;99.90;;;;;;5015476;28;20675;-81
2022/06/13 08:38:17;;;;;;;8.03;2.90;;;20.70;99.90;;;;;;5016890;28;20688;-81
2022/06/13 08:40:52;;;;;;;6.97;2.83;;;20.80;99.90;;;;;;5011929;28;20634;-80
2022/06/13 08:43:40;;;;;;;4.83;2.90;;;20.80;99.90;;;;;;5016819;28;20630;-81
2022/06/13 08:46:17;;;;;;;4.03;2.33;;;20.80;99.90;;;;;;5012247;28;20650;-80
2022/06/13 08:48:46;;;;;;;3.83;2.80;;;20.90;99.90;;;;;;5013650;28;20633;-81
2022/06/13 08:51:16;;;;;;;4.43;2.60;;;21.10;99.90;;;;;;5021050;28;20726;-81
2022/06/13 08:53:52;;;;;;;9.23;3.33;;;21.20;99.90;;;;;;5013575;28;20649;-81
2022/06/13 08:56:22;;;;;;;5.40;2.93;;;21.30;99.90;;;;;;5015522;28;20696;-81
2022/06/13 08:58:56;;;;;;;7.60;2.80;;;21.10;99.00;;;;;;5017820;28;21242;-80
2022/06/13 09:01:29;;;;;;;4.70;3.27;;;21.10;99.90;;;;;;5014414;28;21247;-80
2022/06/13 09:04:02;;;;;;;7.77;3.20;;;21.10;99.90;;;;;;5021343;28;20634;-81
2022/06/13 09:06:36;;;;;;;6.40;3.47;;;21.10;99.90;;;;;;5017941;28;20717;-80
2022/06/13 09:09:10;;;;;;;9.50;3.93;;;21.20;99.90;;;;;;5019361;28;20632;-80
2022/06/13 09:11:42;;;;;;;2.77;2.40;;;21.30;98.10;;;;;;5015123;28;20630;-80
2022/06/13 09:14:17;;;;;;;6.43;2.70;;;21.40;98.40;;;;;;5017184;28;20620;-82
2022/06/13 09:16:51;;;;;;;7.13;3.13;;;21.50;98.70;;;;;;5012570;28;20652;-81
2022/06/13 09:19:22;;;;;;;8.10;3.33;;;21.60;98.50;;;;;;5013369;28;20649;-81
2022/06/13 09:21:56;;;;;;;6.50;3.20;;;21.80;98.80;;;;;;5020113;28;20637;-80
2022/06/13 09:24:32;;;;;;;5.47;2.70;;;21.90;96.10;;;;;;5010421;28;20623;-80
2022/06/13 09:27:04;;;;;;;5.33;2.87;;;22.00;94.90;;;;;;5011034;28;20713;-82
2022/06/13 09:29:38;;;;;;;4.47;2.67;;;22.10;96.00;;;;;;5014561;28;20631;-82
2022/06/13 09:32:12;;;;;;;7.53;2.80;;;22.20;95.40;;;;;;5019256;28;20630;-82
2022/06/13 09:34:44;;;;;;;10.97;3.07;;;22.40;93.30;;;;;;5020211;28;20663;-82
2022/06/13 09:37:14;;;;;;;3.80;2.37;;;22.30;93.20;;;;;;5011183;28;21217;-82
2022/06/13 09:39:42;;;;;;;4.47;2.60;;;22.30;92.60;;;;;;5013529;28;20695;-81
2022/06/13 09:42:29;;;;;;;11.17;3.07;;;22.10;89.90;;;;;;5014792;28;20642;-81
2022/06/13 09:45:22;;;;;;;5.53;2.43;;;22.00;90.00;;;;;;5011642;28;21249;-81
2022/06/13 09:48:00;;;;;;;3.50;2.00;;;21.90;87.90;;;;;;5014593;28;21206;-81
2022/06/13 09:50:33;;;;;;;5.53;2.63;;;21.80;84.30;;;;;;5019918;28;20639;-81
2022/06/13 09:53:09;;;;;;;6.07;3.17;;;21.90;86.90;;;;;;5015791;28;20600;-81
2022/06/13 09:55:44;;;;;;;10.07;2.80;;;22.00;86.60;;;;;;5019578;28;20689;-81
2022/06/13 09:58:22;;;;;;;2.60;1.93;;;22.00;79.40;;;;;;5012895;28;20607;-80
2022/06/13 10:00:57;;;;;;;5.87;2.10;;;22.00;76.30;;;;;;5017134;28;20622;-81
2022/06/13 10:03:33;;;;;;;3.27;2.27;;;22.10;74.40;;;;;;5017242;28;20619;-81
2022/06/13 10:06:06;;;;;;;6.47;2.03;;;22.10;77.80;;;;;;5011355;28;20767;-80
2022/06/13 10:08:55;;;;;;;5.53;2.27;;;22.30;79.60;;;;;;5017198;28;20628;-80
2022/06/13 10:11:32;;;;;;;4.50;2.13;;;22.40;77.00;;;;;;5014801;28;20611;-81
2022/06/13 10:14:16;;;;;;;7.17;2.47;;;22.50;75.70;;;;;;5013694;28;20626;-81
2022/06/13 10:16:55;;;;;;;4.30;3.20;;;22.50;75.10;;;;;;5015205;28;20670;-80
2022/06/13 10:19:33;;;;;;;4.37;2.70;;;22.40;78.30;;;;;;5014170;28;20639;-81
2022/06/13 10:22:08;;;;;;;2.17;1.90;;;22.40;74.40;;;;;;5012831;28;20616;-80
2022/06/13 10:24:46;;;;;;;6.50;2.10;;;22.30;75.30;;;;;;5014411;28;20634;-81
2022/06/13 10:27:27;;;;;;;2.90;1.63;;;22.30;74.10;;;;;;5005626;28;20746;-81
2022/06/13 10:30:16;;;;;;;3.57;2.40;;;22.30;73.90;;;;;;5003371;28;20627;-80
2022/06/13 10:33:16;;;;;;;3.77;1.90;;;22.40;73.30;;;;;;5012532;28;21267;-80
2022/06/13 10:35:49;;;;;;;3.63;2.00;;;22.40;73.80;;;;;;4998403;28;20674;-80
2022/06/13 10:38:41;;;;;;;3.93;1.77;;;22.50;75.60;;;;;;5018890;28;20673;-80
2022/06/13 10:41:09;;;;;;;5.77;2.10;;;22.80;78.00;;;;;;5013865;28;20643;-82
2022/06/13 10:43:37;;;;;;;4.60;2.27;;;23.00;72.50;;;;;;5020088;28;20627;-82
2022/06/13 10:46:07;;;;;;;3.53;2.07;;;23.10;69.70;;;;;;5015464;28;21216;-81
2022/06/13 10:48:41;;;;;;;4.03;1.63;;;23.00;70.70;;;;;;5019131;28;20650;-81
2022/06/13 10:51:08;;;;;;;4.33;1.63;;;23.20;71.20;;;;;;5019727;28;20626;-81
2022/06/13 10:53:41;;;;;;;7.70;2.20;;;23.30;69.50;;;;;;5014498;28;20638;-80
2022/06/13 10:56:13;;;;;;;3.67;2.50;;;23.60;68.90;;;;;;5015393;28;20675;-80
2022/06/13 10:58:43;;;;;;;4.23;2.13;;;23.70;69.10;;;;;;5012179;28;20626;-80
2022/06/13 11:01:12;;;;;;;6.80;3.27;;;23.90;68.30;;;;;;5010980;28;20615;-80
2022/06/13 11:03:44;;;;;;;4.10;2.03;;;24.10;70.10;;;;;;5015578;28;20941;-80
2022/06/13 11:06:22;;;;;;;2.57;2.03;;;24.30;69.20;;;;;;5011532;28;20650;-80
2022/06/13 11:08:59;;;;;;;3.10;2.03;;;24.40;67.70;;;;;;5018831;28;21452;-80
2022/06/13 11:11:32;;;;;;;4.73;2.13;;;24.30;66.70;;;;;;5020205;28;20709;-81
2022/06/13 11:14:00;;;;;;;2.77;1.70;;;24.40;64.40;;;;;;5016773;28;20622;-81
2022/06/13 11:25:03;;;;;;;3.43;2.10;;;24.70;66.00;;;;;;5012254;28;20743;-81
2022/06/13 11:27:41;;;;;;;2.57;1.83;;;24.80;61.90;;;;;;5008061;28;21208;-81
2022/06/13 11:30:40;;;;;;;2.93;1.67;;;24.60;62.90;;;;;;5020447;28;20649;-81
2022/06/13 11:33:16;;;;;;;3.57;1.73;;;24.60;62.60;;;;;;5012506;28;20646;-81
2022/06/13 11:35:46;;;;;;;2.37;1.63;;;24.90;61.40;;;;;;5012593;28;20686;-82
2022/06/13 11:38:23;;;;;;;5.17;1.97;;;25.20;61.90;;;;;;5013291;28;20627;-81
2022/06/13 11:41:21;;;;;;;2.70;2.13;;;25.50;60.70;;;;;;5015160;28;21061;-81
2022/06/13 11:43:53;;;;;;;2.93;1.77;;;25.70;59.40;;;;;;5004503;28;20648;-81
2022/06/13 11:46:40;;;;;;;3.97;1.70;;;26.10;57.90;;;;;;5013673;28;20647;-81
2022/06/13 11:49:23;;;;;;;3.20;1.70;;;26.30;57.30;;;;;;5017648;28;20640;-81
2022/06/13 11:51:57;;;;;;;3.67;1.73;;;26.70;58.90;;;;;;5015621;28;20631;-81
2022/06/13 11:54:28;;;;;;;3.20;2.47;;;27.10;57.30;;;;;;5010303;28;20953;-80
2022/06/13 11:57:31;;;;;;;4.60;1.60;;;26.90;56.70;;;;;;5018446;28;20682;-79
2022/06/13 12:00:00;;;;;;;4.73;2.57;;;27.00;57.40;;;;;;5003741;28;20647;-81
2022/06/13 12:02:44;;;;;;;3.53;2.20;;;26.80;55.10;;;;;;5012333;28;21213;-82
2022/06/13 12:05:14;;;;;;;5.13;2.00;;;26.50;55.70;;;;;;5008479;28;20666;-80
2022/06/13 12:07:52;;;;;;;4.60;1.80;;;26.00;56.20;;;;;;5009703;28;20763;-82
2022/06/13 12:10:22;;;;;;;7.77;2.03;;;25.80;56.50;;;;;;5012495;28;20722;-82
2022/06/13 12:12:50;;;;;;;6.67;2.30;;;25.90;56.60;;;;;;5000413;28;20659;-81
2022/06/13 12:15:18;;;;;;;3.10;1.70;;;26.00;55.70;;;;;;5003868;28;21143;-82
2022/06/13 12:17:51;;;;;;;2.67;1.77;;;26.00;56.00;;;;;;5012091;28;20638;-80
2022/06/13 12:20:25;;;;;;;5.60;2.07;;;26.30;56.90;;;;;;5010476;28;21210;-82
2022/06/13 12:23:01;;;;;;;2.70;2.10;;;26.60;55.50;;;;;;5014050;28;20659;-81
2022/06/13 12:25:31;;;;;;;6.97;2.93;;;26.90;54.90;;;;;;5007681;28;21237;-81
2022/06/13 12:28:06;;;;;;;3.80;2.10;;;27.00;54.60;;;;;;5013021;28;20630;-81
2022/06/13 12:30:42;;;;;;;6.83;2.13;;;26.90;54.00;;;;;;5015987;28;20686;-82
2022/06/13 12:33:20;;;;;;;3.97;2.10;;;27.00;54.90;;;;;;5015542;28;20975;-81
2022/06/13 12:36:01;;;;;;;4.63;2.67;;;27.00;53.60;;;;;;5012521;28;20678;-81
2022/06/13 12:38:44;;;;;;;2.50;1.97;;;26.90;53.40;;;;;;5015820;28;20717;-82
2022/06/13 12:41:19;;;;;;;4.20;1.90;;;26.90;52.70;;;;;;5015143;28;20626;-81
2022/06/13 12:44:30;;;;;;;4.67;2.23;;;26.80;54.30;;;;;;5018662;28;20734;-82
2022/06/13 12:47:09;;;;;;;4.83;2.10;;;27.00;55.30;;;;;;4990674;28;20675;-82
2022/06/13 12:49:52;;;;;;;7.47;2.40;;;27.20;53.20;;;;;;5022611;28;20625;-81
2022/06/13 12:52:32;;;;;;;6.10;2.10;;;27.50;54.10;;;;;;5009981;28;20639;-81
2022/06/13 12:55:15;;;;;;;5.07;1.67;;;27.80;50.20;;;;;;5012550;28;20725;-80
2022/06/13 12:57:59;;;;;;;3.10;2.00;;;27.60;50.10;;;;;;5018009;28;20638;-82
2022/06/13 13:00:35;;;;;;;7.07;1.67;;;27.20;50.50;;;;;;5017054;28;20623;-80
2022/06/13 13:03:37;;;;;;;4.77;2.17;;;27.10;51.40;;;;;;5020142;28;20615;-80
2022/06/13 13:06:13;;;;;;;2.57;1.50;;;27.80;50.10;;;;;;5004755;28;20662;-81
2022/06/13 13:09:03;;;;;;;1.20;1.10;;;27.90;48.30;;;;;;5017885;28;20606;-81
2022/06/13 13:12:00;;;;;;;4.23;1.90;;;27.90;48.20;;;;;;5016974;28;20631;-81
2022/06/13 13:14:39;;;;;;;2.00;1.23;;;27.90;48.00;;;;;;5012031;28;20645;-81
2022/06/13 13:17:21;;;;;;;5.97;2.07;;;28.30;47.80;;;;;;5020065;28;20662;-81
2022/06/13 13:19:56;;;;;;;2.73;1.53;;;28.70;47.00;;;;;;5021669;28;20611;-81
2022/06/13 13:22:28;;;;;;;2.60;1.67;;;28.90;46.40;;;;;;5019077;28;20642;-81
2022/06/13 13:25:14;;;;;;;2.10;1.57;;;28.80;46.70;;;;;;5017465;28;20628;-81
2022/06/13 13:27:52;;;;;;;2.90;1.87;;;28.40;46.40;;;;;;5021608;28;20633;-81
2022/06/13 13:30:22;;;;;;;2.00;1.40;;;28.20;46.20;;;;;;5019166;28;20702;-81
2022/06/13 13:33:07;;;;;;;1.50;1.40;;;28.40;46.70;;;;;;5015542;28;21084;-82
2022/06/13 13:35:40;;;;;;;3.53;1.77;;;28.80;45.90;;;;;;5019687;28;20686;-82
2022/06/13 13:38:15;;;;;;;3.87;2.00;;;28.70;45.10;;;;;;5018478;28;20681;-81